Time;durP1;ratioP1;P1;durP2;ratioP2;P2;SDS_P1;SDS_P2;PMS_P1;PMS_P2;Temp;Humidity;BMP_temperature;BMP_pressure;BME280_temperature;BME280_humidity;BME280_pressure;Samples;Min_cycle;Max_cycle;Signal;HPM_P1;HPM_P2
2023/03/07 00:02:22;;;;;;;6.10;3.53;;;;;;;3.92;100.00;99611.00;4885797;29;20057;-89
2023/03/07 00:04:47;;;;;;;6.32;3.55;;;;;;;3.95;100.00;99611.09;4859813;29;20033;-90
2023/03/07 00:07:13;;;;;;;7.03;3.67;;;;;;;3.83;100.00;99602.94;4867885;29;20029;-90
2023/03/07 00:09:38;;;;;;;6.50;2.47;;;;;;;3.95;100.00;99605.56;4866493;29;20025;-90
2023/03/07 00:12:05;;;;;;;3.38;2.47;;;;;;;3.89;100.00;99606.22;4880356;29;20497;-90
2023/03/07 00:14:30;;;;;;;7.90;2.22;;;;;;;3.87;100.00;99604.59;4863187;29;20069;-90
2023/03/07 00:16:56;;;;;;;3.63;2.10;;;;;;;3.79;100.00;99613.13;4875653;29;20427;-91
2023/03/07 00:19:21;;;;;;;5.10;2.45;;;;;;;3.56;100.00;99599.19;4873958;29;20582;-90
2023/03/07 00:21:46;;;;;;;3.33;2.22;;;;;;;3.74;100.00;99610.66;4860318;29;20490;-93
2023/03/07 00:24:12;;;;;;;3.88;2.20;;;;;;;3.95;100.00;99610.31;4857587;29;20450;-91
2023/03/07 00:26:38;;;;;;;4.00;2.20;;;;;;;3.76;100.00;99611.09;4854864;29;20036;-91
2023/03/07 00:29:06;;;;;;;3.17;1.83;;;;;;;3.85;100.00;99612.47;4875547;29;20526;-90
2023/03/07 00:31:32;;;;;;;4.70;2.05;;;;;;;3.91;100.00;99609.44;4869640;29;20036;-90
2023/03/07 00:33:57;;;;;;;3.22;2.08;;;;;;;3.89;100.00;99609.00;4870473;29;20459;-89
2023/03/07 00:36:23;;;;;;;3.47;2.00;;;;;;;3.94;100.00;99608.69;4871128;29;20029;-89
2023/03/07 00:38:49;;;;;;;2.45;1.63;;;;;;;3.70;100.00;99604.25;4860613;29;20025;-89
2023/03/07 00:41:17;;;;;;;3.40;1.65;;;;;;;3.84;100.00;99610.88;4862591;29;20029;-89
2023/03/07 00:43:45;;;;;;;5.25;2.15;;;;;;;3.82;100.00;99610.44;4869623;29;20506;-89
2023/03/07 00:46:11;;;;;;;4.47;1.55;;;;;;;3.84;100.00;99610.09;4860380;29;20048;-89
2023/03/07 00:48:38;;;;;;;4.72;1.80;;;;;;;3.75;100.00;99601.97;4864144;29;20041;-90
2023/03/07 00:51:06;;;;;;;5.13;1.85;;;;;;;3.75;100.00;99607.50;4855851;29;20037;-90
2023/03/07 00:53:32;;;;;;;4.10;1.90;;;;;;;3.60;100.00;99594.53;4875191;29;20044;-90
2023/03/07 00:56:11;;;;;;;4.78;2.42;;;;;;;3.53;100.00;99619.28;4859940;29;20060;-90
2023/03/07 00:58:36;;;;;;;3.65;2.47;;;;;;;3.66;100.00;99604.16;4874694;29;20053;-89
2023/03/07 01:01:04;;;;;;;8.25;2.67;;;;;;;3.42;100.00;99583.09;4883807;29;20044;-89
2023/03/07 01:03:31;;;;;;;7.70;3.20;;;;;;;3.50;100.00;99581.25;4879367;29;20120;-90
2023/03/07 01:05:57;;;;;;;4.70;1.90;;;;;;;3.57;100.00;99585.00;4869424;29;20036;-91
2023/03/07 01:08:23;;;;;;;2.58;1.90;;;;;;;3.60;100.00;99589.00;4881532;29;20412;-90
2023/03/07 01:10:48;;;;;;;1.77;1.25;;;;;;;3.58;100.00;99574.72;4892301;29;20036;-91
2023/03/07 01:13:15;;;;;;;5.45;1.50;;;;;;;3.61;100.00;99583.09;4890627;29;20039;-90
2023/03/07 01:15:41;;;;;;;3.80;1.50;;;;;;;3.46;100.00;99579.22;4871324;29;20028;-90
2023/03/07 01:18:07;;;;;;;2.80;1.25;;;;;;;3.72;100.00;99591.63;4867957;29;20428;-91
2023/03/07 01:20:36;;;;;;;3.72;1.45;;;;;;;3.54;100.00;99579.38;4876041;29;20028;-91
2023/03/07 01:23:02;;;;;;;5.82;1.65;;;;;;;3.55;100.00;99575.47;4872295;29;20046;-90
2023/03/07 01:25:27;;;;;;;2.53;1.00;;;;;;;3.38;100.00;99565.59;4868524;29;20028;-90
2023/03/07 01:27:57;;;;;;;2.13;1.10;;;;;;;3.57;100.00;99562.88;4895736;29;20051;-90
2023/03/07 01:30:23;;;;;;;2.42;0.90;;;;;;;3.45;100.00;99572.09;4877403;29;20024;-90
2023/03/07 01:33:00;;;;;;;2.55;1.13;;;;;;;3.44;100.00;99570.50;4869660;29;20033;-90
2023/03/07 01:35:26;;;;;;;6.35;1.88;;;;;;;3.54;100.00;99579.38;4870338;29;20033;-90
2023/03/07 01:37:53;;;;;;;4.32;1.00;;;;;;;3.45;100.00;99557.47;4873859;29;20112;-90
2023/03/07 01:40:20;;;;;;;2.33;1.23;;;;;;;3.29;100.00;99557.53;4875148;29;20477;-91
2023/03/07 01:42:46;;;;;;;4.40;1.42;;;;;;;3.38;100.00;99558.09;4878727;29;20032;-90
2023/03/07 01:45:11;;;;;;;3.30;1.00;;;;;;;3.51;100.00;99563.50;4894281;29;20036;-92
2023/03/07 01:47:36;;;;;;;3.95;2.03;;;;;;;3.30;100.00;99553.56;4904597;29;20096;-90
2023/03/07 01:50:08;;;;;;;2.38;0.93;;;;;;;3.17;100.00;99549.34;4877535;29;20486;-90
2023/03/07 01:52:37;;;;;;;3.05;1.23;;;;;;;3.26;100.00;99563.75;4878359;29;20025;-90
2023/03/07 01:55:18;;;;;;;3.28;1.25;;;;;;;3.26;100.00;99547.97;4874355;29;20101;-91
2023/03/07 01:57:46;;;;;;;1.02;0.93;;;;;;;3.36;100.00;99549.38;4877756;29;20080;-90
2023/03/07 02:00:24;;;;;;;4.22;1.42;;;;;;;3.33;100.00;99536.28;4893504;29;20055;-89
2023/03/07 02:02:54;;;;;;;2.22;1.20;;;;;;;3.38;100.00;99541.50;4894277;29;20036;-90
2023/03/07 02:05:25;;;;;;;6.40;1.65;;;;;;;3.46;100.00;99539.72;4891742;29;20029;-89
2023/03/07 02:07:52;;;;;;;3.38;1.13;;;;;;;3.24;100.00;99544.75;4893641;29;20057;-90
2023/03/07 02:10:21;;;;;;;8.00;1.70;;;;;;;3.29;100.00;99546.47;4871683;29;20043;-90
2023/03/07 02:12:47;;;;;;;4.45;1.70;;;;;;;3.51;100.00;99533.09;4871190;29;20353;-89
2023/03/07 02:15:13;;;;;;;6.45;1.60;;;;;;;3.43;100.00;99529.34;4869188;29;20128;-89
2023/03/07 02:17:40;;;;;;;5.38;1.65;;;;;;;3.23;100.00;99531.31;4873152;29;20401;-89
2023/03/07 02:20:42;;;;;;;8.88;2.00;;;;;;;3.37;100.00;99526.09;4891553;29;20052;-90
2023/03/07 02:23:12;;;;;;;7.45;1.92;;;;;;;3.29;100.00;99518.81;4875308;29;20084;-90
2023/03/07 02:26:14;;;;;;;5.40;2.42;;;;;;;3.25;100.00;99527.00;4879144;29;20075;-90
2023/03/07 02:28:41;;;;;;;9.13;2.13;;;;;;;3.28;100.00;99522.72;4886393;29;20028;-90
2023/03/07 02:31:07;;;;;;;8.73;2.75;;;;;;;3.17;100.00;99524.47;4872816;29;20024;-90
2023/03/07 02:33:33;;;;;;;7.45;1.85;;;;;;;3.25;100.00;99520.69;4876998;29;20047;-89
2023/03/07 02:36:04;;;;;;;3.10;2.03;;;;;;;3.34;100.00;99518.50;4891418;29;20029;-90
2023/03/07 02:38:32;;;;;;;4.72;2.25;;;;;;;3.22;100.00;99524.16;4876549;29;20056;-90
2023/03/07 02:40:57;;;;;;;5.95;1.98;;;;;;;3.21;100.00;99522.56;4893307;29;20047;-90
2023/03/07 02:43:25;;;;;;;4.60;2.05;;;;;;;3.13;100.00;99507.78;4877358;29;20032;-89
2023/03/07 02:45:51;;;;;;;10.65;2.05;;;;;;;3.18;100.00;99510.28;4873705;29;20718;-89
2023/03/07 02:48:17;;;;;;;6.47;1.60;;;;;;;3.12;100.00;99510.91;4889999;29;20060;-89
2023/03/07 02:50:43;;;;;;;7.95;1.52;;;;;;;3.18;100.00;99518.56;4890418;29;20076;-89
2023/03/07 02:53:08;;;;;;;9.77;2.15;;;;;;;3.36;100.00;99513.41;4890826;29;20024;-92
2023/03/07 02:55:34;;;;;;;6.30;1.70;;;;;;;3.36;100.00;99513.41;4873956;29;20041;-89
2023/03/07 02:57:59;;;;;;;11.10;2.00;;;;;;;3.46;100.00;99520.34;4895410;29;20040;-89
2023/03/07 03:00:25;;;;;;;11.27;2.47;;;;;;;3.24;100.00;99522.63;4877199;29;20058;-90
2023/03/07 03:02:50;;;;;;;8.77;2.13;;;;;;;3.25;100.00;99509.63;4873328;29;20057;-89
2023/03/07 03:05:16;;;;;;;9.13;1.60;;;;;;;3.26;100.00;99497.38;4887095;29;20124;-90
2023/03/07 03:07:41;;;;;;;12.57;2.55;;;;;;;3.22;100.00;99508.38;4888233;29;20024;-89
2023/03/07 03:10:07;;;;;;;8.95;2.30;;;;;;;3.31;100.00;99505.41;4892274;29;20132;-89
2023/03/07 03:12:32;;;;;;;6.13;1.98;;;;;;;3.36;100.00;99507.09;4887107;29;20043;-89
2023/03/07 03:14:58;;;;;;;15.15;2.67;;;;;;;3.30;100.00;99512.09;4874420;29;20028;-89
2023/03/07 03:17:23;;;;;;;12.18;3.28;;;;;;;3.38;100.00;99505.56;4875468;29;20066;-92
2023/03/07 03:19:49;;;;;;;9.60;2.47;;;;;;;3.23;100.00;99511.94;4890244;29;20097;-90
2023/03/07 03:22:14;;;;;;;14.57;3.42;;;;;;;3.33;100.00;99514.16;4895437;29;20157;-89
2023/03/07 03:24:41;;;;;;;10.15;3.67;;;;;;;3.41;100.00;99515.88;4887563;29;20040;-89
2023/03/07 03:27:06;;;;;;;18.13;3.88;;;;;;;3.29;100.00;99513.28;4892524;29;20036;-89
2023/03/07 03:29:32;;;;;;;8.40;2.33;;;;;;;3.36;100.00;99507.88;4891269;29;20036;-88
2023/03/07 03:31:57;;;;;;;12.55;2.25;;;;;;;3.49;100.00;99511.31;4874494;29;20119;-89
2023/03/07 03:34:23;;;;;;;7.88;2.30;;;;;;;3.49;100.00;99510.50;4876409;29;20075;-89
2023/03/07 03:36:48;;;;;;;12.35;3.00;;;;;;;3.51;100.00;99510.94;4888776;29;20426;-89
2023/03/07 03:39:14;;;;;;;6.65;2.15;;;;;;;3.40;100.00;99496.91;4891641;29;20036;-90
2023/03/07 03:41:40;;;;;;;8.35;2.20;;;;;;;3.44;100.00;99497.78;4876450;29;20502;-89
2023/03/07 03:44:05;;;;;;;9.23;2.95;;;;;;;3.47;100.00;99503.38;4898309;29;20582;-89
2023/03/07 03:46:30;;;;;;;7.18;2.13;;;;;;;3.49;100.00;99494.72;4896090;29;20079;-89
2023/03/07 03:48:56;;;;;;;13.93;3.90;;;;;;;3.41;100.00;99490.97;4883853;29;20028;-89
2023/03/07 03:51:23;;;;;;;7.13;1.80;;;;;;;3.46;100.00;99500.97;4898509;29;20028;-89
2023/03/07 03:53:49;;;;;;;7.28;2.13;;;;;;;3.55;100.00;99498.00;4887836;29;20028;-90
2023/03/07 03:56:21;;;;;;;6.88;2.50;;;;;;;3.45;100.00;99500.16;4893839;29;20028;-90
2023/03/07 03:58:48;;;;;;;8.07;1.95;;;;;;;3.39;100.00;99487.00;4870798;29;20043;-89
2023/03/07 04:01:14;;;;;;;13.90;3.30;;;;;;;3.50;100.00;99501.03;4886800;29;20894;-90
2023/03/07 04:03:42;;;;;;;9.27;2.00;;;;;;;3.52;100.00;99495.94;4887873;29;20071;-90
2023/03/07 04:06:11;;;;;;;7.68;2.03;;;;;;;3.39;100.00;99479.47;4887852;29;20035;-91
2023/03/07 04:08:37;;;;;;;8.18;1.70;;;;;;;3.46;100.00;99496.25;4873589;29;20654;-93
2023/03/07 04:11:04;;;;;;;9.85;3.08;;;;;;;3.38;100.00;99485.41;4871930;29;20032;-92
2023/03/07 04:13:31;;;;;;;4.43;1.20;;;;;;;3.54;100.00;99490.84;4870609;29;20485;-90
2023/03/07 04:15:56;;;;;;;5.03;1.50;;;;;;;3.38;100.00;99490.94;4875858;29;20386;-90
2023/03/07 04:18:23;;;;;;;9.25;2.03;;;;;;;3.37;100.00;99489.31;4902412;29;20087;-90
2023/03/07 04:20:50;;;;;;;3.95;1.50;;;;;;;3.36;100.00;99496.81;4894447;29;20342;-90
2023/03/07 04:23:20;;;;;;;12.73;1.80;;;;;;;3.37;100.00;99500.38;4890070;29;20028;-89
2023/03/07 04:25:47;;;;;;;5.20;1.50;;;;;;;3.42;100.00;99494.56;4887837;29;20503;-93
2023/03/07 04:28:12;;;;;;;5.65;1.33;;;;;;;3.39;100.00;99487.78;4874602;29;20060;-90
2023/03/07 04:30:38;;;;;;;6.07;2.97;;;;;;;3.37;100.00;99492.06;4886347;29;20036;-90
2023/03/07 04:33:03;;;;;;;5.70;1.50;;;;;;;3.40;100.00;99492.16;4888617;29;20036;-89
2023/03/07 04:35:28;;;;;;;5.63;1.73;;;;;;;3.40;100.00;99486.63;4883701;29;20028;-90
2023/03/07 04:37:54;;;;;;;4.82;1.20;;;;;;;3.50;100.00;99484.44;4873019;29;20029;-90
2023/03/07 04:40:19;;;;;;;3.83;1.50;;;;;;;3.42;100.00;99478.78;4871541;29;20028;-90
2023/03/07 04:42:45;;;;;;;5.45;1.60;;;;;;;3.47;100.00;99481.22;4873888;29;20111;-90
2023/03/07 04:45:10;;;;;;;8.10;1.30;;;;;;;3.57;100.00;99479.84;4889355;29;20080;-90
2023/03/07 04:47:35;;;;;;;6.05;1.25;;;;;;;3.41;100.00;99477.16;4879427;29;20037;-90
2023/03/07 04:50:01;;;;;;;8.57;1.55;;;;;;;3.22;100.00;99477.16;4877337;29;20516;-90
2023/03/07 04:52:26;;;;;;;10.85;2.63;;;;;;;3.47;100.00;99485.97;4889638;29;20037;-90
2023/03/07 04:54:52;;;;;;;13.07;2.13;;;;;;;3.21;100.00;99479.13;4873880;29;20043;-90
2023/03/07 04:57:17;;;;;;;3.22;1.02;;;;;;;3.25;100.00;99470.91;4874081;29;20079;-90
2023/03/07 04:59:42;;;;;;;9.15;1.40;;;;;;;3.34;100.00;99471.47;4869177;29;20573;-93
2023/03/07 05:02:11;;;;;;;5.90;1.13;;;;;;;3.33;100.00;99475.44;4870986;29;20054;-90
2023/03/07 05:04:37;;;;;;;6.18;1.30;;;;;;;3.43;100.00;99474.81;4865537;29;20089;-90
2023/03/07 05:07:03;;;;;;;8.20;1.40;;;;;;;3.25;100.00;99462.63;4857467;29;20419;-89
2023/03/07 05:09:28;;;;;;;3.25;1.45;;;;;;;3.35;100.00;99456.50;4871374;29;20029;-90
2023/03/07 05:11:54;;;;;;;5.22;1.73;;;;;;;3.33;100.00;99467.13;4868957;29;20093;-90
2023/03/07 05:14:19;;;;;;;10.43;1.70;;;;;;;3.29;100.00;99459.91;4868620;29;20043;-90
2023/03/07 05:16:45;;;;;;;5.72;2.50;;;;;;;3.22;100.00;99449.50;4865842;29;20403;-90
2023/03/07 05:19:12;;;;;;;9.93;1.90;;;;;;;3.21;100.00;99467.28;4871945;29;20035;-90
2023/03/07 05:21:39;;;;;;;11.18;1.80;;;;;;;3.27;100.00;99463.06;4865280;29;20025;-91
2023/03/07 05:24:06;;;;;;;3.25;1.30;;;;;;;3.18;100.00;99448.63;4871942;29;20141;-91
2023/03/07 05:26:32;;;;;;;4.05;1.80;;;;;;;3.43;100.00;99461.00;4867852;29;20035;-90
2023/03/07 05:28:57;;;;;;;5.72;1.75;;;;;;;3.38;100.00;99458.53;4869763;29;20123;-90
2023/03/07 05:31:23;;;;;;;13.13;2.17;;;;;;;3.40;100.00;99453.44;4872147;29;20711;-89
2023/03/07 05:33:48;;;;;;;6.82;1.90;;;;;;;3.23;100.00;99438.09;4868977;29;20088;-90
2023/03/07 05:36:14;;;;;;;17.25;2.05;;;;;;;3.23;100.00;99459.41;4858407;29;20029;-89
2023/03/07 05:38:39;;;;;;;6.40;1.67;;;;;;;3.30;100.00;99458.75;4881009;29;20099;-90
2023/03/07 05:41:05;;;;;;;6.97;1.42;;;;;;;3.22;100.00;99463.31;4874705;29;20072;-89
2023/03/07 05:43:30;;;;;;;8.70;2.53;;;;;;;3.29;100.00;99466.25;4876362;29;20037;-89
2023/03/07 05:45:56;;;;;;;9.30;1.52;;;;;;;3.34;100.00;99467.94;4858845;29;20502;-90
2023/03/07 05:48:21;;;;;;;5.30;1.70;;;;;;;3.19;100.00;99458.53;4873237;29;20026;-92
2023/03/07 05:50:46;;;;;;;3.15;1.33;;;;;;;3.25;100.00;99463.41;4860390;29;20064;-89
2023/03/07 05:53:12;;;;;;;3.92;1.25;;;;;;;3.40;100.00;99472.81;4877534;29;20037;-90
2023/03/07 05:55:37;;;;;;;7.38;1.50;;;;;;;3.27;100.00;99468.59;4860422;29;20040;-90
2023/03/07 05:58:02;;;;;;;6.60;1.63;;;;;;;3.30;100.00;99465.06;4878354;29;20540;-90
2023/03/07 06:00:28;;;;;;;4.57;2.35;;;;;;;3.33;100.00;99461.59;4873858;29;20041;-90
2023/03/07 06:02:53;;;;;;;7.32;1.77;;;;;;;3.40;100.00;99464.50;4872312;29;20124;-90
2023/03/07 06:05:19;;;;;;;10.80;1.52;;;;;;;3.21;100.00;99470.81;4860757;29;20027;-89
2023/03/07 06:07:45;;;;;;;6.25;1.40;;;;;;;3.26;100.00;99469.72;4863998;29;20039;-89
2023/03/07 06:10:11;;;;;;;4.18;1.80;;;;;;;3.33;100.00;99474.59;4868395;29;20037;-90
2023/03/07 06:12:37;;;;;;;6.13;1.40;;;;;;;3.22;100.00;99468.84;4864323;29;20561;-90
2023/03/07 06:15:03;;;;;;;3.40;1.52;;;;;;;3.19;100.00;99458.53;4870816;29;20021;-90
2023/03/07 06:17:28;;;;;;;8.10;1.15;;;;;;;3.15;100.00;99466.75;4871232;29;20037;-90
2023/03/07 06:19:54;;;;;;;3.28;1.42;;;;;;;3.22;100.00;99466.09;4851849;29;20032;-90
2023/03/07 06:22:19;;;;;;;5.15;1.35;;;;;;;3.19;100.00;99469.59;4866830;29;20383;-90
2023/03/07 06:24:45;;;;;;;5.78;1.40;;;;;;;3.39;100.00;99478.69;4865010;29;20032;-90
2023/03/07 06:27:10;;;;;;;5.03;1.40;;;;;;;3.52;100.00;99482.09;4865764;29;20136;-90
2023/03/07 06:29:36;;;;;;;6.25;1.35;;;;;;;3.25;100.00;99473.69;4857277;29;20512;-90
2023/03/07 06:32:02;;;;;;;2.10;1.30;;;;;;;3.25;100.00;99487.50;4856293;29;20044;-90
2023/03/07 06:34:27;;;;;;;2.83;1.30;;;;;;;3.37;100.00;99484.59;4857852;29;20041;-90
2023/03/07 06:36:52;;;;;;;12.13;1.73;;;;;;;3.19;100.00;99486.19;4870851;29;20037;-90
2023/03/07 06:39:19;;;;;;;5.90;1.83;;;;;;;3.32;100.00;99497.91;4878613;29;20144;-92
2023/03/07 06:41:49;;;;;;;9.85;1.67;;;;;;;3.33;100.00;99505.84;4869653;29;20482;-89
2023/03/07 06:44:15;;;;;;;17.42;1.35;;;;;;;3.17;100.00;99500.38;4873445;29;20553;-90
2023/03/07 06:46:41;;;;;;;6.35;1.67;;;;;;;3.19;100.00;99505.53;4870419;29;20040;-90
2023/03/07 06:49:07;;;;;;;7.53;0.90;;;;;;;2.98;100.00;99487.31;4855760;29;20034;-90
2023/03/07 06:51:32;;;;;;;4.25;1.13;;;;;;;3.22;100.00;99497.31;4869831;29;20145;-90
2023/03/07 06:53:57;;;;;;;7.78;1.70;;;;;;;3.18;100.00;99490.09;4879514;29;20024;-90
2023/03/07 06:56:24;;;;;;;3.53;1.48;;;;;;;3.17;100.00;99500.38;4863448;29;20486;-90
2023/03/07 06:58:49;;;;;;;9.18;1.40;;;;;;;3.10;100.00;99505.75;4875009;29;20041;-90
2023/03/07 07:01:19;;;;;;;7.07;1.98;;;;;;;2.89;100.00;99511.59;4862138;29;20049;-90
2023/03/07 07:03:45;;;;;;;6.07;1.25;;;;;;;3.05;100.00;99514.31;4888265;29;20063;-90
2023/03/07 07:06:11;;;;;;;4.75;1.23;;;;;;;2.99;100.00;99526.81;4889597;29;20474;-90
2023/03/07 07:08:36;;;;;;;8.25;3.08;;;;;;;2.99;100.00;99522.09;4876440;29;20036;-88
2023/03/07 07:11:02;;;;;;;4.30;1.30;;;;;;;4.16;100.00;99524.06;4885165;29;20111;-87
2023/03/07 07:13:27;;;;;;;16.05;1.83;;;;;;;3.49;100.00;99521.56;4894361;29;20092;-87
2023/03/07 07:15:53;;;;;;;7.90;1.67;;;;;;;3.32;100.00;99526.38;4888502;29;20040;-85
2023/03/07 07:18:18;;;;;;;11.38;1.45;;;;;;;3.54;100.00;99537.88;4894187;29;20069;-85
2023/03/07 07:20:44;;;;;;;9.07;1.52;;;;;;;3.31;100.00;99537.78;4890942;29;20124;-88
2023/03/07 07:23:09;;;;;;;7.90;1.27;;;;;;;3.04;100.00;99515.47;4879494;29;20043;-87
2023/03/07 07:25:37;;;;;;;10.35;1.20;;;;;;;3.04;100.00;99532.06;4898472;29;20496;-87
2023/03/07 07:28:02;;;;;;;4.57;1.20;;;;;;;2.83;100.00;99529.59;4879799;29;20044;-85
2023/03/07 07:30:28;;;;;;;6.72;1.33;;;;;;;3.15;100.00;99524.81;4878740;29;20036;-85
2023/03/07 07:32:53;;;;;;;5.18;1.55;;;;;;;2.83;100.00;99529.59;4897079;29;20063;-84
2023/03/07 07:35:18;;;;;;;5.13;2.15;;;;;;;3.09;100.00;99530.97;4895959;29;20036;-83
2023/03/07 07:37:44;;;;;;;2.90;1.15;;;;;;;2.92;100.00;99538.50;4876818;29;20032;-84
2023/03/07 07:40:10;;;;;;;6.93;1.40;;;;;;;2.92;100.00;99538.50;4890242;29;20116;-85
2023/03/07 07:42:36;;;;;;;5.93;1.45;;;;;;;3.25;100.00;99542.81;4882059;29;20032;-85
2023/03/07 07:45:01;;;;;;;4.40;1.48;;;;;;;3.07;100.00;99538.84;4896234;29;20047;-86
2023/03/07 07:47:27;;;;;;;2.95;1.08;;;;;;;3.18;100.00;99540.69;4885463;29;20869;-86
2023/03/07 07:49:52;;;;;;;3.33;1.15;;;;;;;3.23;100.00;99536.84;4873134;29;20037;-86
2023/03/07 07:52:18;;;;;;;4.10;1.35;;;;;;;3.11;100.00;99542.47;4893428;29;20067;-85
2023/03/07 07:54:43;;;;;;;6.05;1.20;;;;;;;3.18;100.00;99528.81;4879922;29;20032;-85
2023/03/07 07:57:09;;;;;;;5.50;1.58;;;;;;;3.21;100.00;99525.34;4878408;29;20037;-85
2023/03/07 07:59:34;;;;;;;6.03;1.52;;;;;;;2.72;100.00;99529.34;4891963;29;20524;-85
2023/03/07 08:02:00;;;;;;;8.07;1.55;;;;;;;3.01;100.00;99530.00;4891674;29;20028;-85
2023/03/07 08:04:26;;;;;;;8.10;1.73;;;;;;;2.79;100.00;99523.19;4891706;29;20025;-85
2023/03/07 08:06:51;;;;;;;3.45;1.65;;;;;;;2.73;100.00;99522.66;4894573;29;20032;-85
2023/03/07 08:09:17;;;;;;;5.47;1.85;;;;;;;2.95;100.00;99521.22;4889857;29;20029;-85
2023/03/07 08:11:42;;;;;;;6.13;2.03;;;;;;;2.97;100.00;99516.13;4874241;29;20024;-85
2023/03/07 08:14:08;;;;;;;4.07;1.50;;;;;;;3.07;100.00;99509.22;4889781;29;20099;-85
2023/03/07 08:16:34;;;;;;;4.97;1.15;;;;;;;2.80;100.00;99508.19;4875542;29;20033;-86
2023/03/07 08:18:59;;;;;;;6.82;1.70;;;;;;;2.87;100.00;99522.22;4892274;29;20477;-85
2023/03/07 08:21:26;;;;;;;6.03;1.38;;;;;;;3.06;100.00;99521.44;4885667;29;20040;-85
2023/03/07 08:23:55;;;;;;;5.63;2.15;;;;;;;2.95;100.00;99528.69;4887924;29;20028;-85
2023/03/07 08:26:20;;;;;;;7.45;1.77;;;;;;;2.74;100.00;99526.22;4875136;29;20529;-86
2023/03/07 08:28:46;;;;;;;7.30;1.40;;;;;;;2.81;100.00;99523.63;4892527;29;20028;-88
2023/03/07 08:31:18;;;;;;;3.00;1.20;;;;;;;3.05;100.00;99517.06;4880924;29;20025;-86
2023/03/07 08:33:50;;;;;;;11.43;1.83;;;;;;;3.06;100.00;99515.94;4883008;29;20029;-85
2023/03/07 08:36:16;;;;;;;8.23;1.80;;;;;;;3.12;100.00;99519.19;4891047;29;20028;-85
2023/03/07 08:38:42;;;;;;;4.32;1.23;;;;;;;3.10;100.00;99521.50;4880241;29;20032;-85
2023/03/07 08:41:08;;;;;;;3.85;2.20;;;;;;;3.01;100.00;99513.41;4889736;29;20088;-84
2023/03/07 08:43:36;;;;;;;12.60;1.83;;;;;;;3.02;100.00;99515.84;4892535;29;20041;-86
2023/03/07 08:46:03;;;;;;;6.13;1.63;;;;;;;3.09;100.00;99525.47;4879735;29;20474;-84
2023/03/07 08:48:29;;;;;;;3.72;1.38;;;;;;;2.91;100.00;99514.81;4875426;29;20471;-84
2023/03/07 08:50:55;;;;;;;5.93;1.70;;;;;;;2.96;100.00;99527.53;4893599;29;20127;-85
2023/03/07 08:53:21;;;;;;;11.65;1.75;;;;;;;3.00;100.00;99525.66;4895142;29;20343;-84
2023/03/07 08:55:46;;;;;;;3.63;1.90;;;;;;;2.93;100.00;99528.25;4895910;29;20025;-87
2023/03/07 08:58:13;;;;;;;5.35;2.47;;;;;;;2.97;100.00;99531.88;4896979;29;20033;-86
2023/03/07 09:00:39;;;;;;;9.70;1.45;;;;;;;3.11;100.00;99525.91;4899088;29;20095;-87
2023/03/07 09:03:05;;;;;;;5.07;1.65;;;;;;;2.99;100.00;99533.16;4881921;29;20056;-88
2023/03/07 09:05:31;;;;;;;7.03;3.55;;;;;;;2.87;100.00;99532.44;4893959;29;20115;-88
2023/03/07 09:07:57;;;;;;;4.53;2.80;;;;;;;3.28;100.00;99536.53;4895377;29;20557;-89
2023/03/07 09:10:23;;;;;;;7.00;2.58;;;;;;;3.17;100.00;99527.22;4883519;29;20048;-88
2023/03/07 09:12:52;;;;;;;4.45;1.83;;;;;;;3.33;100.00;99540.97;4874511;29;20421;-88
2023/03/07 09:15:17;;;;;;;8.95;2.13;;;;;;;3.44;100.00;99545.59;4895904;29;20166;-86
2023/03/07 09:17:43;;;;;;;7.72;2.10;;;;;;;3.52;100.00;99542.97;4880363;29;20063;-87
2023/03/07 09:20:10;;;;;;;8.63;2.03;;;;;;;3.22;100.00;99535.22;4896797;29;20103;-88
2023/03/07 09:22:57;;;;;;;;;;;;;;;;;;;;;
2023/03/07 09:25:44;;;;;;;6.05;1.77;;;;;;;3.34;100.00;99532.34;4891181;29;20059;-88
2023/03/07 09:28:14;;;;;;;5.13;1.65;;;;;;;3.59;100.00;99545.91;4876364;29;20024;-88
2023/03/07 09:30:39;;;;;;;10.10;1.65;;;;;;;3.40;100.00;99527.31;4878757;29;20063;-86
2023/03/07 09:33:16;;;;;;;5.07;1.35;;;;;;;3.24;100.00;99533.69;4898604;29;20037;-87
2023/03/07 09:35:42;;;;;;;4.80;1.63;;;;;;;3.45;100.00;99532.56;4876576;29;20060;-87
2023/03/07 09:38:13;;;;;;;11.15;1.92;;;;;;;3.68;100.00;99540.94;4879177;29;20466;-87
2023/03/07 09:40:50;;;;;;;11.68;1.75;;;;;;;3.70;100.00;99533.09;4881446;29;20077;-87
2023/03/07 09:43:34;;;;;;;10.10;1.60;;;;;;;3.76;100.00;99539.94;4880760;29;20048;-87
2023/03/07 09:46:30;;;;;;;11.90;1.70;;;;;;;3.87;100.00;99545.69;4878667;29;20037;-87
2023/03/07 09:49:37;;;;;;;7.90;1.75;;;;;;;3.91;100.00;99543.78;4872343;29;20033;-87
2023/03/07 09:52:13;;;;;;;8.35;3.33;;;;;;;3.93;100.00;99552.53;4894674;29;20028;-88
2023/03/07 09:54:55;;;;;;;7.55;1.48;;;;;;;4.00;100.00;99551.84;4886586;29;20028;-88
2023/03/07 09:57:54;;;;;;;5.57;2.75;;;;;;;3.92;100.00;99541.81;4877500;29;20064;-88
2023/03/07 10:00:41;;;;;;;5.88;1.70;;;;;;;3.85;100.00;99546.03;4888149;29;20044;-88
2023/03/07 10:03:53;;;;;;;10.32;3.35;;;;;;;3.84;100.00;99533.38;4890010;29;20463;-88
2023/03/07 10:06:36;;;;;;;12.27;3.83;;;;;;;3.89;100.00;99545.31;4801694;29;20030;-88
2023/03/07 10:09:04;;;;;;;10.10;1.95;;;;;;;3.95;100.00;99550.19;4871904;29;20041;-87
2023/03/07 10:11:32;;;;;;;5.10;1.42;;;;;;;3.98;100.00;99545.88;4891173;29;20185;-88
2023/03/07 10:14:29;;;;;;;8.38;1.98;;;;;;;4.16;100.00;99551.78;4889757;29;20036;-87
2023/03/07 10:17:07;;;;;;;9.27;2.40;;;;;;;4.26;100.00;99549.19;4876937;29;20438;-88
2023/03/07 10:19:45;;;;;;;7.90;1.75;;;;;;;4.04;100.00;99541.66;4893409;29;20560;-87
2023/03/07 10:22:42;;;;;;;7.10;2.33;;;;;;;4.08;100.00;99543.31;4893738;29;20032;-87
2023/03/07 10:25:25;;;;;;;7.30;2.03;;;;;;;3.96;100.00;99557.31;4890112;29;20035;-87
2023/03/07 10:28:20;;;;;;;4.45;1.70;;;;;;;4.08;100.00;99553.59;4897227;29;20100;-87
2023/03/07 10:30:48;;;;;;;6.93;3.20;;;;;;;3.97;100.00;99555.38;4895432;29;20474;-88
2023/03/07 10:33:21;;;;;;;5.93;2.08;;;;;;;4.12;100.00;99546.16;4877631;29;20036;-87
2023/03/07 10:35:58;;;;;;;11.10;2.08;;;;;;;4.07;100.00;99543.69;4891367;29;20100;-86
2023/03/07 10:38:28;;;;;;;6.07;1.73;;;;;;;4.12;100.00;99543.38;4880294;29;20044;-87
2023/03/07 10:41:00;;;;;;;9.27;1.80;;;;;;;4.08;100.00;99545.28;4900992;29;20497;-86
2023/03/07 10:43:31;;;;;;;15.95;2.22;;;;;;;4.14;100.00;99549.38;4898350;29;20029;-87
2023/03/07 10:46:14;;;;;;;10.05;1.63;;;;;;;4.02;100.00;99532.91;4898413;29;20046;-87
2023/03/07 10:49:15;;;;;;;12.10;2.63;;;;;;;4.15;100.00;99541.84;4899000;29;20032;-86
2023/03/07 10:52:09;;;;;;;5.43;1.80;;;;;;;4.26;100.00;99560.28;4903569;29;20553;-86
2023/03/07 10:54:36;;;;;;;8.80;1.58;;;;;;;4.33;100.00;99554.06;4888918;29;20123;-86
2023/03/07 10:57:11;;;;;;;11.88;2.35;;;;;;;4.43;100.00;99558.19;4903603;29;20114;-86
2023/03/07 10:59:39;;;;;;;10.40;2.50;;;;;;;4.32;100.00;99551.66;4904179;29;20048;-87
2023/03/07 11:02:27;;;;;;;5.95;2.15;;;;;;;4.47;100.00;99556.31;4896006;29;20033;-85
2023/03/07 11:04:52;;;;;;;10.27;2.40;;;;;;;4.58;100.00;99560.03;4890352;29;20119;-88
2023/03/07 11:07:28;;;;;;;4.68;1.30;;;;;;;4.46;100.00;99563.78;4887544;29;20059;-87
2023/03/07 11:09:55;;;;;;;7.30;1.67;;;;;;;4.39;100.00;99558.13;4902994;29;20040;-86
2023/03/07 11:12:23;;;;;;;13.95;1.90;;;;;;;4.47;100.00;99559.06;4890439;29;20041;-86
2023/03/07 11:14:54;;;;;;;7.25;1.85;;;;;;;4.48;100.00;99563.44;4882637;29;20100;-86
2023/03/07 11:17:38;;;;;;;5.38;1.27;;;;;;;4.60;100.00;99571.56;4878476;29;20473;-87
2023/03/07 11:20:21;;;;;;;3.92;1.10;;;;;;;4.54;100.00;99566.69;4899079;29;20036;-86
2023/03/07 11:22:48;;;;;;;13.02;1.92;;;;;;;4.36;100.00;99574.69;4882528;29;20060;-86
2023/03/07 11:25:16;;;;;;;8.18;1.50;;;;;;;4.45;100.00;99569.72;4897205;29;20032;-87
2023/03/07 11:27:44;;;;;;;3.17;1.13;;;;;;;4.36;100.00;99574.69;4899092;29;20561;-86
2023/03/07 11:30:21;;;;;;;4.25;1.38;;;;;;;4.48;100.00;99571.75;4898153;29;20481;-87
2023/03/07 11:33:06;;;;;;;3.55;0.82;;;;;;;4.43;100.00;99569.28;4898227;29;20096;-86
2023/03/07 11:35:39;;;;;;;6.65;1.30;;;;;;;4.47;100.00;99570.94;4898553;29;20032;-86
2023/03/07 11:38:35;;;;;;;10.75;1.58;;;;;;;4.56;100.00;99562.38;4899303;29;20032;-87
2023/03/07 11:41:22;;;;;;;7.72;1.80;;;;;;;4.44;100.00;99565.34;4899321;29;20169;-85
2023/03/07 11:44:17;;;;;;;7.38;1.70;;;;;;;4.77;100.00;99563.94;4898594;29;20025;-86